Time;durP1;ratioP1;P1;durP2;ratioP2;P2;SDS_P1;SDS_P2;PMS_P1;PMS_P2;Temp;Humidity;BMP_temperature;BMP_pressure;BME280_temperature;BME280_humidity;BME280_pressure;Samples;Min_cycle;Max_cycle;Signal;HPM_P1;HPM_P2
2023/02/13 00:00:47;;;;;;;16.30;3.20;;;25.80;97.20;;;;;;5006927;28;20459;-59
2023/02/13 00:03:15;;;;;;;14.55;2.95;;;26.10;96.40;;;;;;5014075;28;20112;-60
2023/02/13 00:05:42;;;;;;;17.08;3.33;;;26.40;95.10;;;;;;5014378;28;20030;-59
2023/02/13 00:08:09;;;;;;;24.60;3.63;;;26.60;93.80;;;;;;5011782;28;20120;-60
2023/02/13 00:10:37;;;;;;;21.30;4.25;;;26.50;93.00;;;;;;5020049;28;20017;-59
2023/02/13 00:13:04;;;;;;;20.02;5.10;;;26.30;94.60;;;;;;5020991;28;20030;-60
2023/02/13 00:15:32;;;;;;;17.85;4.78;;;26.40;94.10;;;;;;5021841;28;20054;-59
2023/02/13 00:18:01;;;;;;;16.15;3.10;;;26.80;94.40;;;;;;5013426;28;20064;-59
2023/02/13 00:20:28;;;;;;;22.88;3.50;;;27.10;92.40;;;;;;5011446;28;20118;-58
2023/02/13 00:22:57;;;;;;;17.90;4.07;;;26.80;92.00;;;;;;5010438;28;20030;-59
2023/02/13 00:25:24;;;;;;;16.92;3.80;;;26.50;92.20;;;;;;5011830;28;20136;-58
2023/02/13 00:27:52;;;;;;;20.70;4.00;;;26.30;93.10;;;;;;5008447;28;20026;-59
2023/02/13 00:30:21;;;;;;;19.45;3.75;;;26.10;93.20;;;;;;5014306;28;20048;-59
2023/02/13 00:32:48;;;;;;;20.17;4.45;;;26.10;93.20;;;;;;5017382;28;20040;-58
2023/02/13 00:35:16;;;;;;;21.27;4.43;;;26.10;93.10;;;;;;5012304;28;20041;-58
2023/02/13 00:37:43;;;;;;;17.90;3.92;;;26.00;93.50;;;;;;5009449;28;20022;-59
2023/02/13 00:40:11;;;;;;;17.58;3.17;;;26.00;93.10;;;;;;5013508;28;20487;-60
2023/02/13 00:42:38;;;;;;;15.65;3.22;;;25.80;94.10;;;;;;5011016;28;20060;-58
2023/02/13 00:45:05;;;;;;;16.75;3.30;;;25.90;93.90;;;;;;5008714;28;20018;-58
2023/02/13 00:47:33;;;;;;;20.00;4.82;;;26.00;94.00;;;;;;5006974;28;20042;-59
2023/02/13 00:50:00;;;;;;;14.32;2.53;;;25.90;93.80;;;;;;5010539;28;20022;-59
2023/02/13 00:52:27;;;;;;;23.10;3.55;;;25.60;93.60;;;;;;5011386;28;20033;-59
2023/02/13 00:54:55;;;;;;;19.05;3.38;;;25.70;94.10;;;;;;5005544;28;20064;-59
2023/02/13 00:57:22;;;;;;;12.02;3.63;;;25.70;93.80;;;;;;5007899;28;20022;-59
2023/02/13 00:59:49;;;;;;;23.48;4.50;;;25.70;93.50;;;;;;4990603;28;20125;-60
2023/02/13 01:02:17;;;;;;;16.08;3.80;;;25.80;94.20;;;;;;5007976;28;20042;-60
2023/02/13 01:04:44;;;;;;;20.40;3.63;;;25.50;94.70;;;;;;5000888;28;20080;-60
2023/02/13 01:07:11;;;;;;;17.48;3.45;;;25.30;94.60;;;;;;5003904;28;20030;-60
2023/02/13 01:09:39;;;;;;;22.33;4.45;;;25.30;94.80;;;;;;5006603;28;20033;-60
2023/02/13 01:12:06;;;;;;;22.52;4.93;;;25.00;95.40;;;;;;5007034;28;20419;-61
2023/02/13 01:14:34;;;;;;;12.82;4.18;;;24.90;96.00;;;;;;5005488;28;20104;-61
2023/02/13 01:17:01;;;;;;;21.05;4.20;;;25.00;96.50;;;;;;5004323;28;20021;-61
2023/02/13 01:19:29;;;;;;;25.42;3.88;;;25.30;96.20;;;;;;5006771;28;20030;-60
2023/02/13 01:21:56;;;;;;;27.30;3.90;;;25.60;95.40;;;;;;5011509;28;20052;-60
2023/02/13 01:24:23;;;;;;;16.20;3.65;;;26.10;95.10;;;;;;5009128;28;20028;-60
2023/02/13 01:26:51;;;;;;;15.43;3.63;;;26.10;94.00;;;;;;5012606;28;20079;-60
2023/02/13 01:29:18;;;;;;;17.88;3.70;;;26.10;93.80;;;;;;5016063;28;20033;-62
2023/02/13 01:31:45;;;;;;;19.38;3.80;;;26.00;93.80;;;;;;5018533;28;20022;-61
2023/02/13 01:34:13;;;;;;;20.75;4.03;;;25.90;94.40;;;;;;5019756;28;20059;-61
2023/02/13 01:36:40;;;;;;;17.35;3.60;;;26.00;94.10;;;;;;5015333;28;20030;-60
2023/02/13 01:39:10;;;;;;;18.45;3.85;;;26.00;93.60;;;;;;5010138;28;20022;-60
2023/02/13 01:41:38;;;;;;;18.52;3.95;;;25.70;94.20;;;;;;5015864;28;20502;-60
2023/02/13 01:44:47;;;;;;;15.18;3.67;;;25.50;95.00;;;;;;5013249;28;20607;-60
2023/02/13 01:47:21;;;;;;;15.27;3.60;;;25.50;95.10;;;;;;5013836;28;20045;-60
2023/02/13 01:49:50;;;;;;;25.73;3.50;;;25.60;95.00;;;;;;5018545;28;20072;-61
2023/02/13 01:52:17;;;;;;;19.20;3.90;;;25.50;94.80;;;;;;5015450;28;20030;-60
2023/02/13 01:54:46;;;;;;;15.00;3.20;;;25.60;95.30;;;;;;5005745;28;20055;-57
2023/02/13 01:57:22;;;;;;;17.50;4.38;;;25.40;95.10;;;;;;5020330;28;20030;-58
2023/02/13 01:59:57;;;;;;;15.98;3.55;;;25.20;95.70;;;;;;5014958;28;20033;-60
2023/02/13 02:02:25;;;;;;;15.40;3.25;;;25.10;96.10;;;;;;5025951;28;20025;-59
2023/02/13 02:04:53;;;;;;;22.35;3.60;;;25.10;95.70;;;;;;5016137;28;20021;-59
2023/02/13 02:07:28;;;;;;;21.27;3.60;;;25.10;95.70;;;;;;5019726;28;20026;-60
2023/02/13 02:10:02;;;;;;;14.20;3.03;;;24.90;94.80;;;;;;5024115;28;20112;-59
2023/02/13 02:12:38;;;;;;;20.23;3.53;;;25.00;95.80;;;;;;5009751;28;20030;-58
2023/02/13 02:15:06;;;;;;;16.02;3.17;;;25.00;95.70;;;;;;5017038;28;20056;-58
2023/02/13 02:17:34;;;;;;;18.08;3.60;;;24.90;96.30;;;;;;5015767;28;20034;-61
2023/02/13 02:20:14;;;;;;;21.92;3.95;;;24.70;96.40;;;;;;5021899;28;20030;-61
2023/02/13 02:23:23;;;;;;;26.02;4.90;;;24.80;97.30;;;;;;4995741;28;20157;-61
2023/02/13 02:26:07;;;;;;;27.38;4.82;;;25.00;97.50;;;;;;5015318;28;20066;-62
2023/02/13 02:29:07;;;;;;;19.65;3.78;;;25.30;95.80;;;;;;5014507;28;20530;-61
2023/02/13 02:31:52;;;;;;;15.68;4.13;;;25.30;96.10;;;;;;4973619;28;20092;-61
2023/02/13 02:34:36;;;;;;;21.15;3.28;;;25.50;95.80;;;;;;5013467;28;20044;-62
2023/02/13 02:37:09;;;;;;;17.63;4.20;;;25.80;95.60;;;;;;5013608;28;20033;-61
2023/02/13 02:40:11;;;;;;;18.70;3.45;;;25.80;95.70;;;;;;5009952;28;20111;-61
2023/02/13 02:43:07;;;;;;;15.02;3.45;;;25.80;94.70;;;;;;5009158;28;20631;-58
2023/02/13 02:45:49;;;;;;;21.65;4.50;;;25.50;95.10;;;;;;4999543;28;20088;-59
2023/02/13 02:51:58;;;;;;;18.40;3.65;;;25.40;95.10;;;;;;5024724;28;20134;-59
2023/02/13 02:55:06;;;;;;;16.13;3.70;;;25.90;95.60;;;;;;5026356;28;20049;-59
2023/02/13 03:06:25;;;;;;;18.30;4.22;;;26.10;94.00;;;;;;5012925;28;20109;-59
2023/02/13 03:14:29;;;;;;;18.75;3.58;;;26.10;93.90;;;;;;5016736;28;20137;-62
2023/02/13 03:23:03;;;;;;;17.52;4.22;;;26.40;93.30;;;;;;5005985;28;20080;-62
2023/02/13 03:25:38;;;;;;;15.93;3.35;;;26.10;94.30;;;;;;5024168;28;20394;-63
2023/02/13 03:31:21;;;;;;;18.25;3.55;;;26.40;93.40;;;;;;5014201;28;20036;-62
2023/02/13 03:34:10;;;;;;;23.17;3.90;;;26.30;93.00;;;;;;5024958;28;20030;-66
2023/02/13 03:39:54;;;;;;;25.13;4.53;;;25.80;93.30;;;;;;5019253;28;20036;-62
2023/02/13 03:42:33;;;;;;;17.95;3.97;;;25.40;94.60;;;;;;5017814;28;20030;-61
2023/02/13 03:47:54;;;;;;;23.20;3.53;;;25.00;95.50;;;;;;5018620;28;20087;-61
2023/02/13 03:50:23;;;;;;;18.27;4.18;;;25.20;95.60;;;;;;5030184;28;20382;-62
2023/02/13 03:52:55;;;;;;;15.73;3.42;;;25.30;95.00;;;;;;5018591;28;20033;-62
2023/02/13 04:01:35;;;;;;;23.15;4.63;;;26.10;94.00;;;;;;5020808;28;20087;-62
2023/02/13 04:04:28;;;;;;;16.58;3.30;;;25.80;93.70;;;;;;4998579;28;20036;-61
2023/02/13 04:07:04;;;;;;;17.50;3.38;;;25.90;94.60;;;;;;5005988;28;20199;-62
2023/02/13 04:09:35;;;;;;;14.77;3.25;;;26.10;93.40;;;;;;5020294;28;20022;-62
2023/02/13 04:12:20;;;;;;;19.88;4.72;;;26.10;93.70;;;;;;5027883;28;20046;-62
2023/02/13 04:14:57;;;;;;;14.35;3.38;;;26.50;92.40;;;;;;5005362;28;20083;-62
2023/02/13 04:17:51;;;;;;;18.23;3.28;;;27.10;92.20;;;;;;5021303;28;20109;-63
2023/02/13 04:20:19;;;;;;;19.15;3.70;;;27.40;91.20;;;;;;5024797;28;20475;-63
2023/02/13 04:22:48;;;;;;;20.50;4.65;;;27.40;91.40;;;;;;5027040;28;20018;-63
2023/02/13 04:25:17;;;;;;;14.88;2.88;;;27.10;90.70;;;;;;5021264;28;20032;-62
2023/02/13 04:27:44;;;;;;;16.65;4.20;;;26.60;91.10;;;;;;5018862;28;20030;-62
2023/02/13 04:30:12;;;;;;;19.50;3.45;;;26.70;91.90;;;;;;5018943;28;20484;-62
2023/02/13 04:32:40;;;;;;;15.05;3.80;;;27.00;91.30;;;;;;5027826;28;20036;-62
2023/02/13 04:35:08;;;;;;;25.10;3.30;;;27.00;90.80;;;;;;5013222;28;20037;-62
2023/02/13 04:37:35;;;;;;;14.38;2.72;;;27.10;90.70;;;;;;5019284;28;20026;-62
2023/02/13 04:40:02;;;;;;;13.60;3.10;;;27.20;90.80;;;;;;5027048;28;20041;-63
2023/02/13 04:42:30;;;;;;;14.63;3.38;;;27.30;90.60;;;;;;5012039;28;20053;-61
2023/02/13 04:44:57;;;;;;;19.73;3.78;;;27.20;90.00;;;;;;5014251;28;20039;-63
2023/02/13 04:47:24;;;;;;;20.38;4.93;;;26.90;90.30;;;;;;5010670;28;20026;-62
2023/02/13 04:49:52;;;;;;;18.63;3.95;;;26.70;90.90;;;;;;5014560;28;20028;-64
2023/02/13 04:52:19;;;;;;;10.38;2.65;;;26.00;91.80;;;;;;4995442;28;20033;-62
2023/02/13 04:54:46;;;;;;;19.08;2.55;;;25.60;93.50;;;;;;5023784;28;20037;-63
2023/02/13 04:57:14;;;;;;;16.75;3.40;;;25.60;93.30;;;;;;5018045;28;20026;-63
2023/02/13 04:59:41;;;;;;;17.65;3.05;;;25.40;94.00;;;;;;5020673;28;20037;-63
2023/02/13 05:02:09;;;;;;;26.60;3.63;;;25.40;94.40;;;;;;5023227;28;20060;-62
2023/02/13 05:04:36;;;;;;;20.90;3.17;;;25.50;94.20;;;;;;5024693;28;20096;-61
2023/02/13 05:07:03;;;;;;;21.40;3.53;;;25.50;93.90;;;;;;5024671;28;20033;-62
2023/02/13 05:09:31;;;;;;;17.77;4.53;;;25.20;94.50;;;;;;5026495;28;20037;-61
2023/02/13 05:11:58;;;;;;;12.52;2.95;;;24.90;94.90;;;;;;5019724;28;20060;-62
2023/02/13 05:14:25;;;;;;;13.70;3.03;;;25.00;95.00;;;;;;5018750;28;20446;-61
2023/02/13 05:16:52;;;;;;;21.98;4.40;;;24.80;95.10;;;;;;5021371;28;20696;-61
2023/02/13 05:19:20;;;;;;;25.08;4.50;;;24.90;95.80;;;;;;5018294;28;20036;-61
2023/02/13 05:24:32;;;;;;;15.05;2.45;;;25.10;95.30;;;;;;5008270;28;20481;-61
2023/02/13 05:26:59;;;;;;;19.13;3.38;;;25.10;95.20;;;;;;5011413;28;20116;-61
2023/02/13 05:29:27;;;;;;;14.00;2.67;;;25.10;95.70;;;;;;5016980;28;20036;-61
2023/02/13 05:31:57;;;;;;;19.65;3.35;;;25.00;95.50;;;;;;5001930;28;20033;-61
2023/02/13 05:34:26;;;;;;;23.25;3.20;;;24.80;95.70;;;;;;5010198;28;20148;-61
2023/02/13 05:36:54;;;;;;;24.83;3.40;;;24.70;96.30;;;;;;5015368;28;20068;-61
2023/02/13 05:39:21;;;;;;;17.30;3.38;;;24.60;96.10;;;;;;5028181;28;20033;-61
2023/02/13 05:41:49;;;;;;;17.02;3.30;;;24.60;96.90;;;;;;5016070;28;20065;-62
2023/02/13 05:44:17;;;;;;;18.40;3.45;;;24.60;97.50;;;;;;5026153;28;20033;-61
2023/02/13 05:46:45;;;;;;;21.52;3.88;;;24.70;96.80;;;;;;5011094;28;20474;-62
2023/02/13 05:49:14;;;;;;;18.58;4.32;;;24.50;97.00;;;;;;5021086;28;20094;-62
2023/02/13 05:51:42;;;;;;;21.52;3.28;;;24.50;97.90;;;;;;5023373;28;20025;-61
2023/02/13 05:54:10;;;;;;;24.63;3.60;;;24.40;97.80;;;;;;5013239;28;20395;-62
2023/02/13 05:56:37;;;;;;;21.27;4.78;;;24.40;98.20;;;;;;5025777;28;20068;-62
2023/02/13 05:59:05;;;;;;;22.98;5.75;;;24.30;98.00;;;;;;5015672;28;20038;-62
2023/02/13 06:01:32;;;;;;;22.50;4.93;;;24.20;98.40;;;;;;5021540;28;20037;-62
2023/02/13 06:03:59;;;;;;;25.15;5.75;;;24.30;98.60;;;;;;5019700;28;20024;-62
2023/02/13 06:06:27;;;;;;;19.80;3.13;;;24.30;98.80;;;;;;5028693;28;20025;-62
2023/02/13 06:08:54;;;;;;;17.20;2.75;;;24.30;98.80;;;;;;5016509;28;20041;-62
2023/02/13 06:11:22;;;;;;;19.88;3.42;;;24.00;99.00;;;;;;5022368;28;20044;-62
2023/02/13 06:13:49;;;;;;;20.83;4.20;;;23.80;99.70;;;;;;5015616;28;20050;-63
2023/02/13 06:16:16;;;;;;;23.35;3.35;;;23.80;99.90;;;;;;5025918;28;20017;-63
2023/02/13 06:18:44;;;;;;;14.98;2.80;;;23.70;99.90;;;;;;5012545;28;20036;-63
2023/02/13 06:21:11;;;;;;;19.25;3.47;;;23.70;99.90;;;;;;5018554;28;20018;-62
2023/02/13 06:23:38;;;;;;;18.20;3.55;;;23.60;99.90;;;;;;5008529;28;20114;-63
2023/02/13 06:26:08;;;;;;;17.88;4.05;;;23.50;99.90;;;;;;5014492;28;20022;-62
2023/02/13 06:28:35;;;;;;;19.75;2.92;;;23.60;99.90;;;;;;4995426;28;20026;-62
2023/02/13 06:31:03;;;;;;;20.05;4.22;;;23.70;99.90;;;;;;5012368;28;20387;-63
2023/02/13 06:33:30;;;;;;;22.05;2.92;;;23.80;99.90;;;;;;5024926;28;20410;-63
2023/02/13 06:35:58;;;;;;;14.48;2.53;;;23.80;99.90;;;;;;5016978;28;20022;-63
2023/02/13 06:38:26;;;;;;;21.80;3.28;;;23.70;99.90;;;;;;5005140;28;20026;-62
2023/02/13 06:40:58;;;;;;;23.65;4.70;;;23.80;99.90;;;;;;5013190;28;20483;-63
2023/02/13 06:43:25;;;;;;;21.45;3.92;;;23.80;99.90;;;;;;5015593;28;20068;-62
2023/02/13 06:45:52;;;;;;;21.05;4.80;;;23.70;99.90;;;;;;5020612;28;20037;-62
2023/02/13 06:48:20;;;;;;;19.80;3.63;;;23.40;99.90;;;;;;5010317;28;20422;-62
2023/02/13 06:50:50;;;;;;;23.25;3.45;;;23.40;99.90;;;;;;5015226;28;20022;-62
2023/02/13 06:53:23;;;;;;;13.32;4.40;;;23.30;99.90;;;;;;4999063;28;20624;-65
2023/02/13 06:55:54;;;;;;;23.05;5.30;;;22.90;99.90;;;;;;5020154;28;20040;-63
2023/02/13 06:58:23;;;;;;;18.98;4.80;;;22.70;99.90;;;;;;5024320;28;20025;-63
2023/02/13 07:00:51;;;;;;;16.83;4.60;;;22.70;99.90;;;;;;5017145;28;20075;-63
2023/02/13 07:03:18;;;;;;;22.50;3.50;;;22.60;99.90;;;;;;5017116;28;20069;-63
2023/02/13 07:05:46;;;;;;;19.65;3.53;;;22.50;99.90;;;;;;5007495;28;20029;-62
2023/02/13 07:08:14;;;;;;;17.45;3.70;;;22.40;99.90;;;;;;5023006;28;20026;-62
2023/02/13 07:10:42;;;;;;;21.10;4.40;;;22.40;99.90;;;;;;5022742;28;20485;-62
2023/02/13 07:13:10;;;;;;;15.52;3.85;;;22.40;99.90;;;;;;5010319;28;20030;-62
2023/02/13 07:15:38;;;;;;;13.50;2.97;;;22.30;99.90;;;;;;5018885;28;20045;-63
2023/02/13 07:18:06;;;;;;;20.20;3.47;;;22.30;99.90;;;;;;4992573;28;20545;-62
2023/02/13 07:20:33;;;;;;;15.45;3.10;;;22.20;99.90;;;;;;4994411;28;20126;-62
2023/02/13 07:23:02;;;;;;;21.55;3.33;;;22.20;99.90;;;;;;5021291;28;20017;-62
2023/02/13 07:25:30;;;;;;;23.60;4.55;;;22.20;99.90;;;;;;5021040;28;20746;-62
2023/02/13 07:28:05;;;;;;;19.80;2.90;;;22.10;99.90;;;;;;5026107;28;20034;-62
2023/02/13 07:30:33;;;;;;;29.90;3.70;;;22.20;99.90;;;;;;4993683;28;20061;-62
2023/02/13 07:33:05;;;;;;;15.55;3.35;;;22.10;99.90;;;;;;5019017;28;20018;-63
2023/02/13 07:35:34;;;;;;;15.35;3.90;;;22.10;99.90;;;;;;5017795;28;20482;-62
2023/02/13 07:38:02;;;;;;;22.88;4.03;;;22.00;99.90;;;;;;5010765;28;20096;-63
2023/02/13 07:40:29;;;;;;;20.77;3.78;;;21.90;99.90;;;;;;5022080;28;20057;-63
2023/02/13 07:43:00;;;;;;;27.98;3.95;;;21.90;99.90;;;;;;5023006;28;20025;-64
2023/02/13 07:45:28;;;;;;;20.10;3.28;;;21.90;99.90;;;;;;5025899;28;20029;-63
2023/02/13 07:47:56;;;;;;;24.40;4.13;;;21.80;99.90;;;;;;5025978;28;20025;-64
2023/02/13 07:50:24;;;;;;;26.63;3.17;;;21.80;99.90;;;;;;5009836;28;20029;-65
2023/02/13 07:52:56;;;;;;;25.55;3.72;;;21.80;99.90;;;;;;5026160;28;20030;-63
2023/02/13 07:55:23;;;;;;;20.02;3.35;;;21.70;99.90;;;;;;5005641;28;20048;-62
2023/02/13 07:57:51;;;;;;;27.52;4.05;;;21.70;99.90;;;;;;5017785;28;20018;-63
2023/02/13 08:00:19;;;;;;;17.83;2.92;;;21.70;99.90;;;;;;4997246;28;20036;-63
2023/02/13 08:02:47;;;;;;;16.67;2.60;;;21.70;99.90;;;;;;5024840;28;20029;-62
2023/02/13 08:05:15;;;;;;;19.80;3.03;;;21.70;99.90;;;;;;5018820;28;20367;-62
2023/02/13 08:07:42;;;;;;;24.13;4.25;;;21.60;99.90;;;;;;5012654;28;20029;-62
2023/02/13 08:12:58;;;;;;;16.27;2.88;;;21.60;99.90;;;;;;5002347;28;20084;-62
2023/02/13 08:15:26;;;;;;;24.63;3.95;;;21.50;99.90;;;;;;5005445;28;20053;-62
2023/02/13 08:17:53;;;;;;;18.05;2.92;;;21.50;99.90;;;;;;5008979;28;20065;-62
2023/02/13 08:20:21;;;;;;;22.45;4.05;;;21.40;99.90;;;;;;5004312;28;20026;-63
2023/02/13 08:22:48;;;;;;;19.52;3.22;;;21.40;99.90;;;;;;5012903;28;20025;-65
2023/02/13 08:25:16;;;;;;;26.58;4.45;;;21.40;99.90;;;;;;5004637;28;20034;-62
2023/02/13 08:27:43;;;;;;;20.83;2.88;;;21.40;99.90;;;;;;5000807;28;20026;-62
2023/02/13 08:30:11;;;;;;;14.88;2.85;;;21.40;99.90;;;;;;5009250;28;20044;-62
2023/02/13 08:32:39;;;;;;;20.73;4.28;;;21.30;99.90;;;;;;5006663;28;20018;-62
2023/02/13 08:35:06;;;;;;;20.40;3.38;;;21.30;99.90;;;;;;5010690;28;20402;-62
2023/02/13 08:37:34;;;;;;;24.45;3.40;;;21.30;99.90;;;;;;5003849;28;20107;-63
2023/02/13 08:40:02;;;;;;;24.50;3.30;;;21.20;99.90;;;;;;5013164;28;20030;-62
2023/02/13 08:42:29;;;;;;;26.15;4.43;;;21.20;99.90;;;;;;5016207;28;20104;-62
2023/02/13 08:44:56;;;;;;;20.40;4.32;;;21.10;99.90;;;;;;5011649;28;20068;-62
2023/02/13 08:47:24;;;;;;;20.58;4.25;;;21.10;99.90;;;;;;4987967;28;20383;-62
2023/02/13 08:49:51;;;;;;;24.90;3.20;;;21.10;99.90;;;;;;5008532;28;20072;-63
2023/02/13 08:52:18;;;;;;;24.88;5.13;;;21.10;99.90;;;;;;5004589;28;20040;-61
2023/02/13 08:54:45;;;;;;;27.13;3.05;;;21.10;99.90;;;;;;4996901;28;20063;-59
2023/02/13 08:57:13;;;;;;;18.83;3.63;;;21.10;99.90;;;;;;5009067;28;20099;-60
2023/02/13 08:59:41;;;;;;;22.17;2.92;;;21.10;99.90;;;;;;5010979;28;20030;-59
2023/02/13 09:02:13;;;;;;;19.02;3.70;;;21.10;99.90;;;;;;5005557;28;20541;-59
2023/02/13 09:04:41;;;;;;;19.30;2.78;;;21.10;99.90;;;;;;5009934;28;20025;-59
2023/02/13 09:07:08;;;;;;;24.83;3.58;;;21.10;99.90;;;;;;5005647;28;20701;-59
2023/02/13 09:09:35;;;;;;;22.73;4.65;;;21.10;99.90;;;;;;5005717;28;20589;-58
2023/02/13 09:12:03;;;;;;;15.82;4.07;;;21.10;99.90;;;;;;5015016;28;20150;-60
2023/02/13 09:14:30;;;;;;;26.52;3.47;;;21.00;99.90;;;;;;5017689;28;20111;-59
2023/02/13 09:16:57;;;;;;;27.80;4.22;;;21.10;99.90;;;;;;5000938;28;20073;-60
2023/02/13 09:19:25;;;;;;;19.80;3.13;;;21.10;99.90;;;;;;5013323;28;20021;-59
2023/02/13 09:21:52;;;;;;;25.65;3.72;;;21.10;99.90;;;;;;5007097;28;20111;-58
2023/02/13 09:24:19;;;;;;;20.95;4.35;;;21.10;99.90;;;;;;5006461;28;20044;-59
2023/02/13 09:26:47;;;;;;;25.95;5.53;;;21.00;99.90;;;;;;5008870;28;20029;-60
2023/02/13 09:29:14;;;;;;;17.27;3.60;;;21.00;99.90;;;;;;4997001;28;20052;-59
2023/02/13 09:31:41;;;;;;;21.55;3.67;;;21.00;99.90;;;;;;5013372;28;20546;-59
2023/02/13 09:34:09;;;;;;;21.98;3.28;;;21.00;99.90;;;;;;5020520;28;20737;-59
2023/02/13 09:36:36;;;;;;;21.08;3.13;;;20.90;99.90;;;;;;5021795;28;20021;-59
2023/02/13 09:39:04;;;;;;;18.00;2.78;;;20.90;99.90;;;;;;5012922;28;20399;-60
2023/02/13 09:41:32;;;;;;;28.48;4.43;;;20.90;99.90;;;;;;5004656;28;20033;-59
2023/02/13 09:44:33;;;;;;;21.75;3.85;;;20.90;99.90;;;;;;5009232;28;20037;-59
2023/02/13 09:47:04;;;;;;;17.60;3.00;;;21.00;99.90;;;;;;5002611;28;20383;-60
2023/02/13 09:49:36;;;;;;;18.65;3.55;;;20.90;99.90;;;;;;5013836;28;20030;-59
2023/02/13 09:52:04;;;;;;;17.55;3.80;;;20.90;99.90;;;;;;5015744;28;20109;-60
2023/02/13 09:54:31;;;;;;;25.20;4.78;;;20.90;99.90;;;;;;5005332;28;20176;-59
2023/02/13 09:57:04;;;;;;;20.48;4.22;;;20.90;99.90;;;;;;5012002;28;20083;-60
2023/02/13 09:59:57;;;;;;;29.00;4.30;;;20.90;99.90;;;;;;5007230;28;20029;-59
2023/02/13 10:02:55;;;;;;;20.17;4.63;;;20.90;99.90;;;;;;5014309;28;20038;-59
2023/02/13 10:05:22;;;;;;;16.85;3.00;;;20.80;99.90;;;;;;5004680;28;20100;-59
2023/02/13 10:08:11;;;;;;;23.98;4.13;;;20.80;99.90;;;;;;5017566;28;20489;-58
2023/02/13 10:10:56;;;;;;;20.92;4.07;;;20.80;99.90;;;;;;5012206;28;20521;-58
2023/02/13 10:13:45;;;;;;;20.67;3.28;;;20.80;99.90;;;;;;5009648;28;20060;-59
2023/02/13 10:16:21;;;;;;;18.17;2.92;;;20.90;99.90;;;;;;5010448;28;20068;-60
2023/02/13 10:19:05;;;;;;;22.63;3.42;;;20.80;99.90;;;;;;5019107;28;20026;-61
2023/02/13 10:21:47;;;;;;;21.20;3.72;;;20.90;99.90;;;;;;5002571;28;20769;-59
2023/02/13 10:24:35;;;;;;;25.33;3.50;;;20.90;99.90;;;;;;5007328;28;20797;-58
2023/02/13 10:27:31;;;;;;;18.35;3.83;;;20.80;99.90;;;;;;5003488;28;20026;-59
2023/02/13 10:30:13;;;;;;;24.92;4.05;;;20.90;99.90;;;;;;5002853;28;20042;-60
2023/02/13 10:32:50;;;;;;;17.73;3.65;;;20.80;99.90;;;;;;5003041;28;20155;-59
2023/02/13 10:35:32;;;;;;;17.17;2.95;;;20.80;99.90;;;;;;4993515;28;20038;-61
2023/02/13 10:38:03;;;;;;;18.02;4.07;;;20.80;99.90;;;;;;5001825;28;20784;-58
2023/02/13 10:40:38;;;;;;;25.42;4.80;;;20.80;99.90;;;;;;5009813;28;20474;-57
2023/02/13 10:43:08;;;;;;;;;;;20.80;99.90;;;;;;5003077;28;20026;-58
2023/02/13 10:45:59;;;;;;;25.67;4.07;;;20.80;99.90;;;;;;5011774;28;19920;-53
2023/02/13 10:49:06;;;;;;;16.25;2.83;;;20.80;99.90;;;;;;5018530;28;20034;-54
2023/02/13 10:51:51;;;;;;;18.20;2.75;;;20.80;99.90;;;;;;5001774;28;20455;-52
2023/02/13 10:54:17;;;;;;;;;;;20.80;99.90;;;;;;5008102;28;20087;-63
2023/02/13 10:57:03;;;;;;;13.18;3.25;;;20.90;99.90;;;;;;5013589;28;19919;-59
2023/02/13 10:59:54;;;;;;;16.45;3.42;;;20.80;99.90;;;;;;5013057;28;20017;-59
2023/02/13 11:02:27;;;;;;;14.20;2.72;;;20.80;99.90;;;;;;5004542;28;20077;-55
2023/02/13 11:05:20;;;;;;;19.13;3.38;;;20.90;99.90;;;;;;5014630;28;20022;-56
2023/02/13 11:07:48;;;;;;;22.13;4.05;;;20.90;99.90;;;;;;4999360;28;20121;-56
2023/02/13 11:10:24;;;;;;;27.05;3.95;;;20.90;99.90;;;;;;5018296;28;20033;-59
2023/02/13 11:12:52;;;;;;;16.90;2.92;;;20.90;99.90;;;;;;5003901;28;20018;-57
2023/02/13 11:15:32;;;;;;;20.95;3.03;;;20.90;99.90;;;;;;5004177;28;20868;-57
2023/02/13 11:18:20;;;;;;;26.80;4.22;;;20.90;99.90;;;;;;5017725;28;20030;-56
2023/02/13 11:20:58;;;;;;;13.93;2.40;;;20.90;99.90;;;;;;5008388;28;20025;-54
2023/02/13 11:23:31;;;;;;;30.65;4.43;;;20.90;99.90;;;;;;5012030;28;20087;-58
2023/02/13 11:26:08;;;;;;;23.03;2.90;;;20.80;99.90;;;;;;5007695;28;20045;-58
2023/02/13 11:28:50;;;;;;;19.50;3.72;;;20.80;99.90;;;;;;5006669;28;20033;-58
2023/02/13 11:31:59;;;;;;;15.30;2.33;;;20.80;99.90;;;;;;5006385;28;20752;-58
2023/02/13 11:34:29;;;;;;;17.13;3.58;;;20.80;99.90;;;;;;5008958;28;20049;-58
2023/02/13 11:37:17;;;;;;;17.85;3.95;;;20.80;99.90;;;;;;5016015;28;20034;-58
2023/02/13 11:39:47;;;;;;;18.30;3.10;;;20.70;99.90;;;;;;5012251;28;20574;-58
2023/02/13 11:42:33;;;;;;;15.40;2.28;;;20.70;99.90;;;;;;5008930;28;20042;-57
2023/02/13 11:45:00;;;;;;;16.02;2.63;;;20.80;99.90;;;;;;5004417;28;20034;-56
2023/02/13 11:47:38;;;;;;;16.40;3.28;;;20.70;99.90;;;;;;5007247;28;20021;-57
2023/02/13 11:50:20;;;;;;;23.98;3.22;;;20.70;99.90;;;;;;5006499;28;20172;-58
2023/02/13 11:53:02;;;;;;;11.73;2.40;;;20.70;99.90;;;;;;5013638;28;20022;-58
2023/02/13 11:55:33;;;;;;;20.13;3.65;;;20.70;99.90;;;;;;5009576;28;20103;-58
2023/02/13 11:58:02;;;;;;;19.17;3.88;;;20.80;99.90;;;;;;5014465;28;20026;-58
2023/02/13 12:00:38;;;;;;;15.00;2.78;;;20.80;99.90;;;;;;5024786;28;20082;-57
2023/02/13 12:03:30;;;;;;;24.38;3.38;;;20.70;99.90;;;;;;5013332;28;20042;-58
2023/02/13 12:06:14;;;;;;;18.35;2.88;;;20.70;99.90;;;;;;5009170;28;20026;-57
2023/02/13 12:08:45;;;;;;;13.80;2.63;;;20.70;99.90;;;;;;5009881;28;20120;-58
2023/02/13 12:11:41;;;;;;;21.15;3.13;;;20.70;99.90;;;;;;5020718;28;20113;-58
2023/02/13 12:14:25;;;;;;;11.75;3.30;;;20.70;99.90;;;;;;5015712;28;20060;-56
2023/02/13 12:17:04;;;;;;;17.90;2.90;;;20.70;99.90;;;;;;5009128;28;20052;-58
2023/02/13 12:19:44;;;;;;;20.15;3.53;;;20.60;99.90;;;;;;5010992;28;20637;-58
2023/02/13 12:22:28;;;;;;;16.38;2.83;;;20.60;99.90;;;;;;5010939;28;20098;-58
2023/02/13 12:25:01;;;;;;;;;;;20.60;99.90;;;;;;5011789;28;20101;-58
2023/02/13 12:27:44;;;;;;;16.30;2.83;;;20.60;99.90;;;;;;5012594;28;20417;-58
2023/02/13 12:30:36;;;;;;;29.90;5.32;;;20.60;99.90;;;;;;5008955;28;20022;-58
2023/02/13 12:33:24;;;;;;;19.70;3.55;;;20.50;99.90;;;;;;5004659;28;20037;-58
2023/02/13 12:36:26;;;;;;;13.93;3.33;;;20.50;99.90;;;;;;5005825;28;20065;-57
2023/02/13 12:39:06;;;;;;;18.90;3.28;;;20.50;99.90;;;;;;5009452;28;20026;-58
2023/02/13 12:41:36;;;;;;;18.90;2.90;;;20.40;99.90;;;;;;5015867;28;20547;-54
2023/02/13 12:44:41;;;;;;;12.05;2.53;;;20.40;99.90;;;;;;5012073;28;20292;-60
2023/02/13 12:47:20;;;;;;;16.77;3.15;;;20.40;99.90;;;;;;5015822;28;20233;-58
2023/02/13 12:50:08;;;;;;;16.98;3.70;;;20.40;99.90;;;;;;5019799;28;20052;-59
2023/02/13 12:52:54;;;;;;;12.80;2.67;;;20.40;99.90;;;;;;5003480;28;20048;-59
2023/02/13 12:55:43;;;;;;;18.70;2.72;;;20.40;99.90;;;;;;5014046;28;20037;-58
2023/02/13 12:58:29;;;;;;;22.27;3.13;;;20.40;99.90;;;;;;5008665;28;20033;-60
2023/02/13 13:00:59;;;;;;;18.63;3.67;;;20.50;99.90;;;;;;5014095;28;20041;-55
2023/02/13 13:03:32;;;;;;;27.23;4.63;;;20.50;99.90;;;;;;5009997;28;20057;-58
2023/02/13 13:06:18;;;;;;;20.70;4.40;;;20.50;99.90;;;;;;5012782;28;20057;-57
2023/02/13 13:09:18;;;;;;;17.80;3.92;;;20.40;99.90;;;;;;4996119;28;20132;-57
2023/02/13 13:11:56;;;;;;;20.48;3.78;;;20.40;99.90;;;;;;5010736;28;20037;-58
2023/02/13 13:14:43;;;;;;;25.42;3.90;;;20.40;99.90;;;;;;5011895;28;20050;-58
2023/02/13 13:17:50;;;;;;;30.42;3.78;;;20.40;99.90;;;;;;5017450;28;20072;-58
2023/02/13 13:20:35;;;;;;;25.48;4.28;;;20.40;99.90;;;;;;5011855;28;20104;-58
2023/02/13 13:23:29;;;;;;;20.13;3.70;;;20.40;99.90;;;;;;5004577;28;20126;-57
2023/02/13 13:26:30;;;;;;;19.90;3.13;;;20.40;99.90;;;;;;5023416;28;20041;-57
2023/02/13 13:29:02;;;;;;;19.30;3.60;;;20.40;99.90;;;;;;4957554;28;20503;-58
2023/02/13 13:31:31;;;;;;;16.23;3.00;;;20.40;99.90;;;;;;5018593;28;20035;-58
2023/02/13 13:34:03;;;;;;;18.90;5.25;;;20.30;99.90;;;;;;5013181;28;20092;-57
2023/02/13 13:36:44;;;;;;;22.67;3.25;;;20.30;99.90;;;;;;5025689;28;20044;-58
2023/02/13 13:39:28;;;;;;;25.05;4.30;;;20.30;99.90;;;;;;5014821;28;20542;-59
2023/02/13 13:42:25;;;;;;;19.17;4.65;;;20.30;99.90;;;;;;5004525;28;20022;-58
2023/02/13 13:45:07;;;;;;;17.67;2.97;;;20.30;99.90;;;;;;4976633;28;20036;-58
2023/02/13 13:47:34;;;;;;;18.75;3.13;;;20.30;99.90;;;;;;5001517;28;20383;-58
2023/02/13 13:50:05;;;;;;;18.42;4.25;;;20.30;99.90;;;;;;5027131;28;20060;-57
2023/02/13 13:52:38;;;;;;;24.58;3.83;;;20.30;99.90;;;;;;5008208;28;20580;-57
2023/02/13 13:55:21;;;;;;;18.75;3.35;;;20.20;99.90;;;;;;5022171;28;20072;-58